sensor_id;sensor_type;location;lat;lon;timestamp;P1;durP1;ratioP1;P2;durP2;ratioP2
15528;SDS011;7866;52.280;9.500;2023-04-01T00:00:12;2.53;;;1.20;;
15528;SDS011;7866;52.280;9.500;2023-04-01T00:05:14;1.73;;;1.07;;
15528;SDS011;7866;52.280;9.500;2023-04-01T00:10:18;2.53;;;1.13;;
15528;SDS011;7866;52.280;9.500;2023-04-01T00:15:20;1.83;;;1.17;;
15528;SDS011;7866;52.280;9.500;2023-04-01T00:20:21;2.27;;;1.40;;
15528;SDS011;7866;52.280;9.500;2023-04-01T00:25:24;2.23;;;0.93;;
15528;SDS011;7866;52.280;9.500;2023-04-01T00:30:26;2.10;;;1.20;;
15528;SDS011;7866;52.280;9.500;2023-04-01T00:35:28;2.10;;;1.13;;
15528;SDS011;7866;52.280;9.500;2023-04-01T00:40:32;2.23;;;1.10;;
15528;SDS011;7866;52.280;9.500;2023-04-01T00:45:35;0.70;;;0.60;;
15528;SDS011;7866;52.280;9.500;2023-04-01T00:50:38;2.40;;;0.80;;
15528;SDS011;7866;52.280;9.500;2023-04-01T00:55:45;1.53;;;0.90;;
15528;SDS011;7866;52.280;9.500;2023-04-01T01:00:52;3.20;;;0.97;;
15528;SDS011;7866;52.280;9.500;2023-04-01T01:11:00;1.03;;;0.90;;
15528;SDS011;7866;52.280;9.500;2023-04-01T01:16:04;2.47;;;0.70;;
15528;SDS011;7866;52.280;9.500;2023-04-01T01:21:18;2.73;;;1.07;;
15528;SDS011;7866;52.280;9.500;2023-04-01T01:26:42;1.53;;;0.70;;
15528;SDS011;7866;52.280;9.500;2023-04-01T01:31:53;3.13;;;0.83;;
15528;SDS011;7866;52.280;9.500;2023-04-01T01:37:05;0.60;;;0.60;;
15528;SDS011;7866;52.280;9.500;2023-04-01T01:42:13;1.60;;;0.83;;
15528;SDS011;7866;52.280;9.500;2023-04-01T01:47:18;1.07;;;0.97;;
15528;SDS011;7866;52.280;9.500;2023-04-01T01:52:26;4.17;;;1.10;;
15528;SDS011;7866;52.280;9.500;2023-04-01T01:57:30;1.93;;;0.83;;
15528;SDS011;7866;52.280;9.500;2023-04-01T02:02:35;2.03;;;1.00;;
15528;SDS011;7866;52.280;9.500;2023-04-01T02:07:38;1.17;;;0.73;;
15528;SDS011;7866;52.280;9.500;2023-04-01T02:12:43;1.57;;;0.87;;
15528;SDS011;7866;52.280;9.500;2023-04-01T02:17:47;1.07;;;0.60;;
15528;SDS011;7866;52.280;9.500;2023-04-01T02:22:53;0.83;;;0.70;;
15528;SDS011;7866;52.280;9.500;2023-04-01T02:27:58;2.03;;;0.90;;
15528;SDS011;7866;52.280;9.500;2023-04-01T02:33:01;0.83;;;0.60;;
15528;SDS011;7866;52.280;9.500;2023-04-01T02:38:06;1.37;;;0.80;;
15528;SDS011;7866;52.280;9.500;2023-04-01T02:43:08;2.17;;;1.00;;
15528;SDS011;7866;52.280;9.500;2023-04-01T02:48:09;0.93;;;0.53;;
15528;SDS011;7866;52.280;9.500;2023-04-01T02:53:14;1.90;;;0.90;;
15528;SDS011;7866;52.280;9.500;2023-04-01T02:58:15;2.60;;;0.80;;
15528;SDS011;7866;52.280;9.500;2023-04-01T03:03:17;1.10;;;0.70;;
15528;SDS011;7866;52.280;9.500;2023-04-01T03:08:20;2.23;;;0.70;;
15528;SDS011;7866;52.280;9.500;2023-04-01T03:13:22;0.50;;;0.50;;
15528;SDS011;7866;52.280;9.500;2023-04-01T03:18:23;1.13;;;0.67;;
15528;SDS011;7866;52.280;9.500;2023-04-01T03:23:26;2.27;;;0.80;;
15528;SDS011;7866;52.280;9.500;2023-04-01T03:28:28;0.67;;;0.50;;
15528;SDS011;7866;52.280;9.500;2023-04-01T03:33:30;1.03;;;0.60;;
15528;SDS011;7866;52.280;9.500;2023-04-01T03:38:33;0.87;;;0.60;;
15528;SDS011;7866;52.280;9.500;2023-04-01T03:43:35;0.80;;;0.70;;
15528;SDS011;7866;52.280;9.500;2023-04-01T03:48:37;1.33;;;0.50;;
15528;SDS011;7866;52.280;9.500;2023-04-01T03:53:40;1.60;;;0.60;;
15528;SDS011;7866;52.280;9.500;2023-04-01T03:58:41;0.40;;;0.40;;
15528;SDS011;7866;52.280;9.500;2023-04-01T04:03:43;0.60;;;0.60;;
15528;SDS011;7866;52.280;9.500;2023-04-01T04:08:47;2.43;;;0.80;;
15528;SDS011;7866;52.280;9.500;2023-04-01T04:13:49;1.73;;;0.77;;
15528;SDS011;7866;52.280;9.500;2023-04-01T04:18:52;1.30;;;1.20;;
15528;SDS011;7866;52.280;9.500;2023-04-01T04:23:55;0.63;;;0.60;;
15528;SDS011;7866;52.280;9.500;2023-04-01T04:28:56;0.83;;;0.63;;
15528;SDS011;7866;52.280;9.500;2023-04-01T04:33:58;2.50;;;0.63;;
15528;SDS011;7866;52.280;9.500;2023-04-01T04:39:02;1.00;;;0.70;;
15528;SDS011;7866;52.280;9.500;2023-04-01T04:44:04;0.87;;;0.70;;
15528;SDS011;7866;52.280;9.500;2023-04-01T04:49:06;1.33;;;0.80;;
15528;SDS011;7866;52.280;9.500;2023-04-01T04:54:09;2.10;;;0.60;;
15528;SDS011;7866;52.280;9.500;2023-04-01T04:59:11;2.40;;;0.77;;
15528;SDS011;7866;52.280;9.500;2023-04-01T05:04:13;0.83;;;0.80;;
15528;SDS011;7866;52.280;9.500;2023-04-01T05:09:16;1.07;;;0.90;;
15528;SDS011;7866;52.280;9.500;2023-04-01T05:14:17;2.73;;;0.90;;
15528;SDS011;7866;52.280;9.500;2023-04-01T05:19:19;0.73;;;0.60;;
15528;SDS011;7866;52.280;9.500;2023-04-01T05:24:22;1.03;;;0.90;;
15528;SDS011;7866;52.280;9.500;2023-04-01T05:29:24;1.87;;;0.60;;
15528;SDS011;7866;52.280;9.500;2023-04-01T05:34:25;0.70;;;0.70;;
15528;SDS011;7866;52.280;9.500;2023-04-01T05:39:28;1.53;;;0.63;;
15528;SDS011;7866;52.280;9.500;2023-04-01T05:44:30;1.63;;;0.87;;
15528;SDS011;7866;52.280;9.500;2023-04-01T05:49:32;0.40;;;0.40;;
15528;SDS011;7866;52.280;9.500;2023-04-01T05:54:35;1.27;;;0.60;;
15528;SDS011;7866;52.280;9.500;2023-04-01T05:59:37;1.07;;;0.90;;
15528;SDS011;7866;52.280;9.500;2023-04-01T06:04:39;2.20;;;0.80;;
15528;SDS011;7866;52.280;9.500;2023-04-01T06:09:43;0.90;;;0.50;;
15528;SDS011;7866;52.280;9.500;2023-04-01T06:14:47;1.70;;;0.70;;
15528;SDS011;7866;52.280;9.500;2023-04-01T06:19:59;1.40;;;0.40;;
15528;SDS011;7866;52.280;9.500;2023-04-01T06:25:13;1.70;;;0.57;;
15528;SDS011;7866;52.280;9.500;2023-04-01T06:30:32;0.60;;;0.57;;
15528;SDS011;7866;52.280;9.500;2023-04-01T06:35:51;0.50;;;0.50;;
15528;SDS011;7866;52.280;9.500;2023-04-01T06:41:14;0.53;;;0.53;;
15528;SDS011;7866;52.280;9.500;2023-04-01T06:46:25;0.57;;;0.57;;
15528;SDS011;7866;52.280;9.500;2023-04-01T06:51:39;2.00;;;0.60;;
15528;SDS011;7866;52.280;9.500;2023-04-01T06:56:49;0.63;;;0.40;;
15528;SDS011;7866;52.280;9.500;2023-04-01T07:01:59;0.63;;;0.40;;
15528;SDS011;7866;52.280;9.500;2023-04-01T07:07:09;0.67;;;0.40;;
15528;SDS011;7866;52.280;9.500;2023-04-01T07:12:18;1.00;;;0.40;;
15528;SDS011;7866;52.280;9.500;2023-04-01T07:17:25;0.80;;;0.40;;
15528;SDS011;7866;52.280;9.500;2023-04-01T07:22:31;0.50;;;0.30;;
15528;SDS011;7866;52.280;9.500;2023-04-01T07:27:36;0.60;;;0.40;;
15528;SDS011;7866;52.280;9.500;2023-04-01T07:32:38;0.67;;;0.40;;
15528;SDS011;7866;52.280;9.500;2023-04-01T07:37:47;0.80;;;0.43;;
15528;SDS011;7866;52.280;9.500;2023-04-01T07:43:07;0.60;;;0.40;;
15528;SDS011;7866;52.280;9.500;2023-04-01T07:48:23;0.40;;;0.40;;
15528;SDS011;7866;52.280;9.500;2023-04-01T07:53:34;1.07;;;0.50;;
15528;SDS011;7866;52.280;9.500;2023-04-01T07:58:44;0.40;;;0.40;;
15528;SDS011;7866;52.280;9.500;2023-04-01T08:03:59;0.50;;;0.50;;
15528;SDS011;7866;52.280;9.500;2023-04-01T08:09:17;1.47;;;0.50;;
15528;SDS011;7866;52.280;9.500;2023-04-01T08:14:29;0.87;;;0.40;;
15528;SDS011;7866;52.280;9.500;2023-04-01T08:19:44;1.30;;;0.47;;
15528;SDS011;7866;52.280;9.500;2023-04-01T08:24:56;1.13;;;0.50;;
15528;SDS011;7866;52.280;9.500;2023-04-01T08:30:06;0.40;;;0.40;;
15528;SDS011;7866;52.280;9.500;2023-04-01T08:35:21;0.40;;;0.40;;
15528;SDS011;7866;52.280;9.500;2023-04-01T08:40:39;1.07;;;0.50;;
15528;SDS011;7866;52.280;9.500;2023-04-01T08:45:59;0.27;;;0.27;;
15528;SDS011;7866;52.280;9.500;2023-04-01T08:56:50;0.93;;;0.77;;
15528;SDS011;7866;52.280;9.500;2023-04-01T09:02:09;2.43;;;2.10;;
15528;SDS011;7866;52.280;9.500;2023-04-01T09:07:29;0.93;;;0.57;;
15528;SDS011;7866;52.280;9.500;2023-04-01T09:12:44;0.87;;;0.40;;
15528;SDS011;7866;52.280;9.500;2023-04-01T09:18:13;0.37;;;0.30;;
15528;SDS011;7866;52.280;9.500;2023-04-01T09:23:29;0.30;;;0.30;;
15528;SDS011;7866;52.280;9.500;2023-04-01T09:28:41;1.43;;;0.30;;
15528;SDS011;7866;52.280;9.500;2023-04-01T09:34:09;0.23;;;0.23;;
15528;SDS011;7866;52.280;9.500;2023-04-01T09:39:36;0.33;;;0.30;;
15528;SDS011;7866;52.280;9.500;2023-04-01T09:44:40;0.37;;;0.20;;
15528;SDS011;7866;52.280;9.500;2023-04-01T09:49:55;0.20;;;0.20;;
15528;SDS011;7866;52.280;9.500;2023-04-01T09:55:19;0.63;;;0.30;;
15528;SDS011;7866;52.280;9.500;2023-04-01T10:00:42;0.50;;;0.50;;
15528;SDS011;7866;52.280;9.500;2023-04-01T10:17:27;1.10;;;0.90;;
15528;SDS011;7866;52.280;9.500;2023-04-01T10:22:49;0.60;;;0.60;;
15528;SDS011;7866;52.280;9.500;2023-04-01T10:33:46;0.53;;;0.27;;
15528;SDS011;7866;52.280;9.500;2023-04-01T10:39:03;0.30;;;0.30;;
15528;SDS011;7866;52.280;9.500;2023-04-01T10:44:30;0.40;;;0.40;;
15528;SDS011;7866;52.280;9.500;2023-04-01T10:50:07;0.87;;;0.47;;
15528;SDS011;7866;52.280;9.500;2023-04-01T10:55:46;0.67;;;0.30;;
15528;SDS011;7866;52.280;9.500;2023-04-01T11:01:22;0.60;;;0.37;;
15528;SDS011;7866;52.280;9.500;2023-04-01T11:12:59;0.80;;;0.40;;
15528;SDS011;7866;52.280;9.500;2023-04-01T11:24:21;0.20;;;0.20;;
15528;SDS011;7866;52.280;9.500;2023-04-01T11:29:45;0.13;;;0.13;;
15528;SDS011;7866;52.280;9.500;2023-04-01T11:40:35;0.93;;;0.33;;
15528;SDS011;7866;52.280;9.500;2023-04-01T11:45:44;0.60;;;0.27;;
15528;SDS011;7866;52.280;9.500;2023-04-01T11:50:57;0.70;;;0.30;;
15528;SDS011;7866;52.280;9.500;2023-04-01T11:56:14;0.97;;;0.30;;
15528;SDS011;7866;52.280;9.500;2023-04-01T12:01:31;0.30;;;0.30;;
15528;SDS011;7866;52.280;9.500;2023-04-01T12:06:48;0.47;;;0.22;;
15528;SDS011;7866;52.280;9.500;2023-04-01T12:12:03;0.63;;;0.63;;
15528;SDS011;7866;52.280;9.500;2023-04-01T12:17:19;0.32;;;0.20;;
15528;SDS011;7866;52.280;9.500;2023-04-01T12:22:37;0.20;;;0.20;;
15528;SDS011;7866;52.280;9.500;2023-04-01T12:27:52;0.50;;;0.37;;
15528;SDS011;7866;52.280;9.500;2023-04-01T12:33:10;0.30;;;0.30;;
15528;SDS011;7866;52.280;9.500;2023-04-01T12:38:31;0.37;;;0.37;;
15528;SDS011;7866;52.280;9.500;2023-04-01T12:49:39;1.58;;;0.50;;
15528;SDS011;7866;52.280;9.500;2023-04-01T12:55:12;0.73;;;0.60;;
15528;SDS011;7866;52.280;9.500;2023-04-01T13:00:44;0.10;;;0.10;;
15528;SDS011;7866;52.280;9.500;2023-04-01T13:06:11;0.20;;;0.20;;
15528;SDS011;7866;52.280;9.500;2023-04-01T13:11:37;0.20;;;0.15;;
15528;SDS011;7866;52.280;9.500;2023-04-01T13:16:49;0.20;;;0.20;;
15528;SDS011;7866;52.280;9.500;2023-04-01T13:21:58;0.70;;;0.40;;
15528;SDS011;7866;52.280;9.500;2023-04-01T13:27:08;0.32;;;0.32;;
15528;SDS011;7866;52.280;9.500;2023-04-01T13:32:23;0.40;;;0.40;;
15528;SDS011;7866;52.280;9.500;2023-04-01T13:37:39;0.80;;;0.80;;
15528;SDS011;7866;52.280;9.500;2023-04-01T13:42:54;0.50;;;0.50;;
15528;SDS011;7866;52.280;9.500;2023-04-01T13:48:10;0.60;;;0.60;;
15528;SDS011;7866;52.280;9.500;2023-04-01T13:53:36;0.77;;;0.77;;
15528;SDS011;7866;52.280;9.500;2023-04-01T13:58:55;1.30;;;0.90;;
15528;SDS011;7866;52.280;9.500;2023-04-01T14:09:44;0.63;;;0.60;;
15528;SDS011;7866;52.280;9.500;2023-04-01T14:14:58;0.37;;;0.37;;
15528;SDS011;7866;52.280;9.500;2023-04-01T14:20:20;1.20;;;0.60;;
15528;SDS011;7866;52.280;9.500;2023-04-01T14:25:32;0.87;;;0.87;;
15528;SDS011;7866;52.280;9.500;2023-04-01T14:30:57;0.97;;;0.90;;
15528;SDS011;7866;52.280;9.500;2023-04-01T14:36:30;0.80;;;0.80;;
15528;SDS011;7866;52.280;9.500;2023-04-01T14:41:53;1.33;;;0.70;;
15528;SDS011;7866;52.280;9.500;2023-04-01T14:47:25;3.17;;;1.73;;
15528;SDS011;7866;52.280;9.500;2023-04-01T14:52:46;2.60;;;2.40;;
15528;SDS011;7866;52.280;9.500;2023-04-01T14:58:11;1.50;;;1.50;;
15528;SDS011;7866;52.280;9.500;2023-04-01T15:03:16;2.20;;;2.10;;
15528;SDS011;7866;52.280;9.500;2023-04-01T15:08:23;1.90;;;1.80;;
15528;SDS011;7866;52.280;9.500;2023-04-01T15:13:41;2.27;;;2.17;;
15528;SDS011;7866;52.280;9.500;2023-04-01T15:18:58;0.97;;;0.97;;
15528;SDS011;7866;52.280;9.500;2023-04-01T15:24:06;1.10;;;1.10;;
15528;SDS011;7866;52.280;9.500;2023-04-01T15:29:19;1.03;;;1.00;;
15528;SDS011;7866;52.280;9.500;2023-04-01T15:34:32;0.80;;;0.80;;
15528;SDS011;7866;52.280;9.500;2023-04-01T15:39:44;0.77;;;0.77;;
15528;SDS011;7866;52.280;9.500;2023-04-01T15:45:00;1.10;;;1.10;;
15528;SDS011;7866;52.280;9.500;2023-04-01T15:55:42;1.40;;;1.40;;
15528;SDS011;7866;52.280;9.500;2023-04-01T16:00:53;1.40;;;1.40;;
15528;SDS011;7866;52.280;9.500;2023-04-01T16:06:31;1.10;;;1.10;;
15528;SDS011;7866;52.280;9.500;2023-04-01T16:11:46;1.10;;;1.10;;
15528;SDS011;7866;52.280;9.500;2023-04-01T16:17:00;1.10;;;1.10;;
15528;SDS011;7866;52.280;9.500;2023-04-01T16:22:17;1.27;;;1.27;;
15528;SDS011;7866;52.280;9.500;2023-04-01T16:27:25;1.33;;;1.23;;
15528;SDS011;7866;52.280;9.500;2023-04-01T16:32:35;0.90;;;0.90;;
15528;SDS011;7866;52.280;9.500;2023-04-01T16:37:43;1.60;;;1.20;;
15528;SDS011;7866;52.280;9.500;2023-04-01T16:42:50;0.90;;;0.90;;
15528;SDS011;7866;52.280;9.500;2023-04-01T16:47:56;0.90;;;0.90;;
15528;SDS011;7866;52.280;9.500;2023-04-01T16:53:02;1.00;;;0.87;;
15528;SDS011;7866;52.280;9.500;2023-04-01T16:58:13;1.10;;;1.10;;
15528;SDS011;7866;52.280;9.500;2023-04-01T17:03:22;1.00;;;1.00;;
15528;SDS011;7866;52.280;9.500;2023-04-01T17:14:01;1.20;;;1.20;;
15528;SDS011;7866;52.280;9.500;2023-04-01T17:19:18;0.90;;;0.90;;
15528;SDS011;7866;52.280;9.500;2023-04-01T17:24:32;1.47;;;1.10;;
15528;SDS011;7866;52.280;9.500;2023-04-01T17:29:55;1.10;;;1.10;;
15528;SDS011;7866;52.280;9.500;2023-04-01T17:35:17;1.10;;;1.10;;
15528;SDS011;7866;52.280;9.500;2023-04-01T17:40:28;1.10;;;1.10;;
15528;SDS011;7866;52.280;9.500;2023-04-01T17:45:37;2.10;;;1.13;;
15528;SDS011;7866;52.280;9.500;2023-04-01T17:50:51;1.50;;;1.47;;
15528;SDS011;7866;52.280;9.500;2023-04-01T17:56:08;2.00;;;1.20;;
15528;SDS011;7866;52.280;9.500;2023-04-01T18:01:21;1.10;;;1.10;;
15528;SDS011;7866;52.280;9.500;2023-04-01T18:06:31;1.53;;;1.43;;
15528;SDS011;7866;52.280;9.500;2023-04-01T18:11:39;1.53;;;1.43;;
15528;SDS011;7866;52.280;9.500;2023-04-01T18:16:55;1.37;;;1.37;;
15528;SDS011;7866;52.280;9.500;2023-04-01T18:22:17;1.20;;;1.20;;
15528;SDS011;7866;52.280;9.500;2023-04-01T18:27:22;1.40;;;1.30;;
15528;SDS011;7866;52.280;9.500;2023-04-01T18:32:31;1.37;;;1.30;;
15528;SDS011;7866;52.280;9.500;2023-04-01T18:37:38;1.43;;;1.30;;
15528;SDS011;7866;52.280;9.500;2023-04-01T18:42:50;2.13;;;2.03;;
15528;SDS011;7866;52.280;9.500;2023-04-01T18:48:06;2.00;;;1.90;;
15528;SDS011;7866;52.280;9.500;2023-04-01T18:53:20;3.00;;;2.80;;
15528;SDS011;7866;52.280;9.500;2023-04-01T18:58:35;1.70;;;1.60;;
15528;SDS011;7866;52.280;9.500;2023-04-01T19:03:52;1.33;;;1.30;;
15528;SDS011;7866;52.280;9.500;2023-04-01T19:14:28;1.40;;;1.30;;
15528;SDS011;7866;52.280;9.500;2023-04-01T19:19:45;1.20;;;1.20;;
15528;SDS011;7866;52.280;9.500;2023-04-01T19:25:01;1.40;;;1.40;;
15528;SDS011;7866;52.280;9.500;2023-04-01T19:30:17;1.20;;;1.20;;
15528;SDS011;7866;52.280;9.500;2023-04-01T19:35:32;1.60;;;1.50;;
15528;SDS011;7866;52.280;9.500;2023-04-01T19:40:45;1.43;;;1.33;;
15528;SDS011;7866;52.280;9.500;2023-04-01T19:45:54;1.47;;;1.40;;
15528;SDS011;7866;52.280;9.500;2023-04-01T19:51:06;1.47;;;1.37;;
15528;SDS011;7866;52.280;9.500;2023-04-01T19:56:14;1.70;;;1.53;;
15528;SDS011;7866;52.280;9.500;2023-04-01T20:01:20;2.67;;;1.77;;
15528;SDS011;7866;52.280;9.500;2023-04-01T20:06:28;1.53;;;1.43;;
15528;SDS011;7866;52.280;9.500;2023-04-01T20:11:44;2.07;;;1.53;;
15528;SDS011;7866;52.280;9.500;2023-04-01T20:17:01;1.73;;;1.63;;
15528;SDS011;7866;52.280;9.500;2023-04-01T20:22:16;1.90;;;1.80;;
15528;SDS011;7866;52.280;9.500;2023-04-01T20:27:29;1.80;;;1.70;;
15528;SDS011;7866;52.280;9.500;2023-04-01T20:32:40;1.40;;;1.40;;
15528;SDS011;7866;52.280;9.500;2023-04-01T20:37:57;1.97;;;1.77;;
15528;SDS011;7866;52.280;9.500;2023-04-01T20:43:22;2.07;;;1.87;;
15528;SDS011;7866;52.280;9.500;2023-04-01T20:54:17;2.17;;;1.90;;
15528;SDS011;7866;52.280;9.500;2023-04-01T20:59:47;2.33;;;2.10;;
15528;SDS011;7866;52.280;9.500;2023-04-01T21:05:08;2.10;;;2.00;;
15528;SDS011;7866;52.280;9.500;2023-04-01T21:10:26;1.93;;;1.83;;
15528;SDS011;7866;52.280;9.500;2023-04-01T21:15:40;3.03;;;2.70;;
15528;SDS011;7866;52.280;9.500;2023-04-01T21:20:49;2.17;;;2.07;;
15528;SDS011;7866;52.280;9.500;2023-04-01T21:26:10;2.47;;;2.30;;
15528;SDS011;7866;52.280;9.500;2023-04-01T21:31:29;3.47;;;2.20;;
15528;SDS011;7866;52.280;9.500;2023-04-01T21:36:46;2.43;;;2.07;;
15528;SDS011;7866;52.280;9.500;2023-04-01T21:42:03;2.40;;;2.20;;
15528;SDS011;7866;52.280;9.500;2023-04-01T21:47:20;4.00;;;2.60;;
15528;SDS011;7866;52.280;9.500;2023-04-01T21:52:56;2.70;;;2.50;;
15528;SDS011;7866;52.280;9.500;2023-04-01T21:58:23;2.23;;;1.97;;
15528;SDS011;7866;52.280;9.500;2023-04-01T22:09:34;4.33;;;2.40;;
15528;SDS011;7866;52.280;9.500;2023-04-01T22:14:41;2.80;;;2.60;;
15528;SDS011;7866;52.280;9.500;2023-04-01T22:19:50;4.30;;;3.03;;
15528;SDS011;7866;52.280;9.500;2023-04-01T22:25:04;4.23;;;3.00;;
15528;SDS011;7866;52.280;9.500;2023-04-01T22:30:16;3.33;;;2.50;;
15528;SDS011;7866;52.280;9.500;2023-04-01T22:35:26;3.40;;;2.60;;
15528;SDS011;7866;52.280;9.500;2023-04-01T22:40:35;3.93;;;2.67;;
15528;SDS011;7866;52.280;9.500;2023-04-01T22:45:46;3.03;;;2.60;;
15528;SDS011;7866;52.280;9.500;2023-04-01T22:51:03;3.90;;;2.70;;
15528;SDS011;7866;52.280;9.500;2023-04-01T22:56:14;3.83;;;2.80;;
15528;SDS011;7866;52.280;9.500;2023-04-01T23:01:20;3.20;;;2.90;;
15528;SDS011;7866;52.280;9.500;2023-04-01T23:06:28;3.27;;;2.60;;
15528;SDS011;7866;52.280;9.500;2023-04-01T23:11:37;3.10;;;2.70;;
15528;SDS011;7866;52.280;9.500;2023-04-01T23:16:46;3.27;;;2.97;;
15528;SDS011;7866;52.280;9.500;2023-04-01T23:21:59;3.60;;;3.13;;
15528;SDS011;7866;52.280;9.500;2023-04-01T23:27:07;3.40;;;3.10;;
15528;SDS011;7866;52.280;9.500;2023-04-01T23:32:13;6.27;;;3.00;;
15528;SDS011;7866;52.280;9.500;2023-04-01T23:37:18;4.67;;;3.70;;
15528;SDS011;7866;52.280;9.500;2023-04-01T23:42:22;5.73;;;3.50;;
15528;SDS011;7866;52.280;9.500;2023-04-01T23:47:29;4.77;;;4.20;;
15528;SDS011;7866;52.280;9.500;2023-04-01T23:52:36;7.57;;;4.30;;
15528;SDS011;7866;52.280;9.500;2023-04-01T23:57:40;5.00;;;4.40;;
